sensor_id;sensor_type;location;lat;lon;timestamp;pressure;altitude;pressure_sealevel;temperature
28905;BMP280;60848;53.884;11.446;2023-11-19T00:00:33;100894.03;;;5.97
28905;BMP280;60848;53.884;11.446;2023-11-19T00:03:02;100890.03;;;6.00
28905;BMP280;60848;53.884;11.446;2023-11-19T00:05:31;100899.94;;;5.98
28905;BMP280;60848;53.884;11.446;2023-11-19T00:08:00;100902.22;;;5.99
28905;BMP280;60848;53.884;11.446;2023-11-19T00:10:33;100876.19;;;5.96
28905;BMP280;60848;53.884;11.446;2023-11-19T00:13:02;100853.25;;;5.98
28905;BMP280;60848;53.884;11.446;2023-11-19T00:15:31;100828.47;;;6.00
28905;BMP280;60848;53.884;11.446;2023-11-19T00:18:03;100836.50;;;5.95
28905;BMP280;60848;53.884;11.446;2023-11-19T00:20:32;100805.09;;;6.00
28905;BMP280;60848;53.884;11.446;2023-11-19T00:23:00;100803.06;;;5.94
28905;BMP280;60848;53.884;11.446;2023-11-19T00:25:33;100813.66;;;6.01
28905;BMP280;60848;53.884;11.446;2023-11-19T00:28:02;100796.59;;;6.00
28905;BMP280;60848;53.884;11.446;2023-11-19T00:30:30;100819.50;;;5.98
28905;BMP280;60848;53.884;11.446;2023-11-19T00:32:59;100799.47;;;5.98
28905;BMP280;60848;53.884;11.446;2023-11-19T00:35:27;100823.19;;;5.97
28905;BMP280;60848;53.884;11.446;2023-11-19T00:37:56;100791.28;;;5.96
28905;BMP280;60848;53.884;11.446;2023-11-19T00:40:25;100776.81;;;5.95
28905;BMP280;60848;53.884;11.446;2023-11-19T00:42:54;100776.38;;;5.93
28905;BMP280;60848;53.884;11.446;2023-11-19T00:45:25;100784.59;;;5.95
28905;BMP280;60848;53.884;11.446;2023-11-19T00:47:54;100764.88;;;5.94
28905;BMP280;60848;53.884;11.446;2023-11-19T00:50:22;100776.38;;;5.93
28905;BMP280;60848;53.884;11.446;2023-11-19T00:52:51;100752.69;;;5.95
28905;BMP280;60848;53.884;11.446;2023-11-19T00:55:22;100741.22;;;5.96
28905;BMP280;60848;53.884;11.446;2023-11-19T00:57:51;100744.91;;;5.95
28905;BMP280;60848;53.884;11.446;2023-11-19T01:00:21;100722.63;;;5.94
28905;BMP280;60848;53.884;11.446;2023-11-19T01:02:51;100704.75;;;5.92
28905;BMP280;60848;53.884;11.446;2023-11-19T01:05:22;100708.88;;;5.93
28905;BMP280;60848;53.884;11.446;2023-11-19T01:07:50;100710.09;;;5.96
28905;BMP280;60848;53.884;11.446;2023-11-19T01:10:22;100701.88;;;5.94
28905;BMP280;60848;53.884;11.446;2023-11-19T01:12:51;100702.94;;;5.93
28905;BMP280;60848;53.884;11.446;2023-11-19T01:15:22;100694.53;;;5.96
28905;BMP280;60848;53.884;11.446;2023-11-19T01:17:53;100700.78;;;5.95
28905;BMP280;60848;53.884;11.446;2023-11-19T01:20:24;100679.59;;;5.93
28905;BMP280;60848;53.884;11.446;2023-11-19T01:22:56;100667.69;;;5.92
28905;BMP280;60848;53.884;11.446;2023-11-19T01:25:24;100684.16;;;5.96
28905;BMP280;60848;53.884;11.446;2023-11-19T01:27:55;100660.78;;;5.96
28905;BMP280;60848;53.884;11.446;2023-11-19T01:30:27;100686.81;;;5.99
28905;BMP280;60848;53.884;11.446;2023-11-19T01:32:58;100662.28;;;5.97
28905;BMP280;60848;53.884;11.446;2023-11-19T01:35:26;100631.91;;;5.97
28905;BMP280;60848;53.884;11.446;2023-11-19T01:37:54;100644.13;;;5.97
28905;BMP280;60848;53.884;11.446;2023-11-19T01:40:23;100650.06;;;5.97
28905;BMP280;60848;53.884;11.446;2023-11-19T01:42:52;100626.72;;;5.97
28905;BMP280;60848;53.884;11.446;2023-11-19T01:45:29;100617.81;;;5.98
28905;BMP280;60848;53.884;11.446;2023-11-19T01:48:00;100621.88;;;5.96
28905;BMP280;60848;53.884;11.446;2023-11-19T01:50:30;100620.41;;;5.98
28905;BMP280;60848;53.884;11.446;2023-11-19T01:53:00;100601.09;;;5.96
28905;BMP280;60848;53.884;11.446;2023-11-19T01:55:29;100580.75;;;5.98
28905;BMP280;60848;53.884;11.446;2023-11-19T01:57:59;100602.25;;;5.98
28905;BMP280;60848;53.884;11.446;2023-11-19T02:00:29;100573.38;;;6.00
28905;BMP280;60848;53.884;11.446;2023-11-19T02:03:00;100579.09;;;6.05
28905;BMP280;60848;53.884;11.446;2023-11-19T02:05:31;100593.06;;;6.01
28905;BMP280;60848;53.884;11.446;2023-11-19T02:08:02;100568.31;;;6.03
28905;BMP280;60848;53.884;11.446;2023-11-19T02:10:30;100554.56;;;6.03
28905;BMP280;60848;53.884;11.446;2023-11-19T02:13:02;100544.94;;;6.03
28905;BMP280;60848;53.884;11.446;2023-11-19T02:15:34;100544.94;;;6.03
28905;BMP280;60848;53.884;11.446;2023-11-19T02:18:22;100526.00;;;6.03
28905;BMP280;60848;53.884;11.446;2023-11-19T02:20:51;100501.47;;;6.00
28905;BMP280;60848;53.884;11.446;2023-11-19T02:23:20;100480.63;;;5.97
28905;BMP280;60848;53.884;11.446;2023-11-19T02:25:57;100480.28;;;5.98
28905;BMP280;60848;53.884;11.446;2023-11-19T02:28:29;100464.31;;;5.96
28905;BMP280;60848;53.884;11.446;2023-11-19T02:30:58;100473.19;;;5.95
28905;BMP280;60848;53.884;11.446;2023-11-19T02:33:28;100460.22;;;5.95
28905;BMP280;60848;53.884;11.446;2023-11-19T02:35:59;100484.00;;;5.97
28905;BMP280;60848;53.884;11.446;2023-11-19T02:38:29;100462.53;;;6.00
28905;BMP280;60848;53.884;11.446;2023-11-19T02:40:58;100478.66;;;6.06
28905;BMP280;60848;53.884;11.446;2023-11-19T02:43:30;100459.31;;;6.03
28905;BMP280;60848;53.884;11.446;2023-11-19T02:46:03;100442.19;;;6.02
28905;BMP280;60848;53.884;11.446;2023-11-19T02:48:37;100435.19;;;6.03
28905;BMP280;60848;53.884;11.446;2023-11-19T02:51:06;100419.94;;;6.01
28905;BMP280;60848;53.884;11.446;2023-11-19T02:53:37;100423.72;;;6.04
28905;BMP280;60848;53.884;11.446;2023-11-19T02:56:07;100422.97;;;6.03
28905;BMP280;60848;53.884;11.446;2023-11-19T02:58:44;100403.88;;;6.11
28905;BMP280;60848;53.884;11.446;2023-11-19T03:01:13;100413.44;;;6.07
28905;BMP280;60848;53.884;11.446;2023-11-19T03:03:50;100400.56;;;6.11
28905;BMP280;60848;53.884;11.446;2023-11-19T03:06:22;100397.72;;;6.16
28905;BMP280;60848;53.884;11.446;2023-11-19T03:08:50;100385.03;;;6.14
28905;BMP280;60848;53.884;11.446;2023-11-19T03:11:18;100384.31;;;6.14
28905;BMP280;60848;53.884;11.446;2023-11-19T03:13:48;100368.06;;;6.17
28905;BMP280;60848;53.884;11.446;2023-11-19T03:16:17;100352.91;;;6.19
28905;BMP280;60848;53.884;11.446;2023-11-19T03:18:45;100347.16;;;6.10
28905;BMP280;60848;53.884;11.446;2023-11-19T03:21:14;100349.38;;;6.11
28905;BMP280;60848;53.884;11.446;2023-11-19T03:23:42;100344.56;;;6.10
28905;BMP280;60848;53.884;11.446;2023-11-19T03:26:11;100346.53;;;6.16
28905;BMP280;60848;53.884;11.446;2023-11-19T03:28:40;100327.19;;;6.14
28905;BMP280;60848;53.884;11.446;2023-11-19T03:31:10;100333.47;;;6.13
28905;BMP280;60848;53.884;11.446;2023-11-19T03:33:39;100338.72;;;6.16
28905;BMP280;60848;53.884;11.446;2023-11-19T03:36:08;100321.31;;;6.17
28905;BMP280;60848;53.884;11.446;2023-11-19T03:38:37;100320.56;;;6.16
28905;BMP280;60848;53.884;11.446;2023-11-19T03:41:12;100308.69;;;6.15
28905;BMP280;60848;53.884;11.446;2023-11-19T03:43:44;100305.69;;;6.13
28905;BMP280;60848;53.884;11.446;2023-11-19T03:46:17;100304.69;;;6.18
28905;BMP280;60848;53.884;11.446;2023-11-19T03:48:47;100305.69;;;6.13
28905;BMP280;60848;53.884;11.446;2023-11-19T03:51:15;100306.84;;;6.16
28905;BMP280;60848;53.884;11.446;2023-11-19T03:53:45;100285.34;;;6.15
28905;BMP280;60848;53.884;11.446;2023-11-19T03:56:13;100277.13;;;6.13
28905;BMP280;60848;53.884;11.446;2023-11-19T03:58:42;100279.28;;;6.11
28905;BMP280;60848;53.884;11.446;2023-11-19T04:01:11;100261.56;;;6.13
28905;BMP280;60848;53.884;11.446;2023-11-19T04:03:41;100255.69;;;6.16
28905;BMP280;60848;53.884;11.446;2023-11-19T04:06:12;100251.16;;;6.13
28905;BMP280;60848;53.884;11.446;2023-11-19T04:08:41;100242.28;;;6.14
28905;BMP280;60848;53.884;11.446;2023-11-19T04:11:10;100231.16;;;6.14
28905;BMP280;60848;53.884;11.446;2023-11-19T04:13:38;100242.63;;;6.13
28905;BMP280;60848;53.884;11.446;2023-11-19T04:16:07;100243.47;;;6.17
28905;BMP280;60848;53.884;11.446;2023-11-19T04:18:36;100239.53;;;6.23
28905;BMP280;60848;53.884;11.446;2023-11-19T04:21:07;100229.41;;;6.18
28905;BMP280;60848;53.884;11.446;2023-11-19T04:23:35;100224.34;;;6.25
28905;BMP280;60848;53.884;11.446;2023-11-19T04:26:04;100215.47;;;6.26
28905;BMP280;60848;53.884;11.446;2023-11-19T04:28:37;100193.56;;;6.23
28905;BMP280;60848;53.884;11.446;2023-11-19T04:31:06;100196.91;;;6.24
28905;BMP280;60848;53.884;11.446;2023-11-19T04:33:36;100179.41;;;6.21
28905;BMP280;60848;53.884;11.446;2023-11-19T04:36:07;100181.66;;;6.22
28905;BMP280;60848;53.884;11.446;2023-11-19T04:38:35;100181.66;;;6.22
28905;BMP280;60848;53.884;11.446;2023-11-19T04:41:05;100166.50;;;6.24
28905;BMP280;60848;53.884;11.446;2023-11-19T04:43:34;100168.41;;;6.27
28905;BMP280;60848;53.884;11.446;2023-11-19T04:46:03;100168.06;;;6.29
28905;BMP280;60848;53.884;11.446;2023-11-19T04:48:34;100168.00;;;6.25
28905;BMP280;60848;53.884;11.446;2023-11-19T04:51:09;100161.78;;;6.30
28905;BMP280;60848;53.884;11.446;2023-11-19T04:53:38;100161.78;;;6.30
28905;BMP280;60848;53.884;11.446;2023-11-19T04:56:10;100158.09;;;6.31
28905;BMP280;60848;53.884;11.446;2023-11-19T04:58:40;100150.31;;;6.31
28905;BMP280;60848;53.884;11.446;2023-11-19T05:01:13;100160.34;;;6.32
28905;BMP280;60848;53.884;11.446;2023-11-19T05:03:45;100138.16;;;6.35
28905;BMP280;60848;53.884;11.446;2023-11-19T05:06:15;100139.69;;;6.36
28905;BMP280;60848;53.884;11.446;2023-11-19T05:08:44;100138.56;;;6.37
28905;BMP280;60848;53.884;11.446;2023-11-19T05:11:15;100128.94;;;6.37
28905;BMP280;60848;53.884;11.446;2023-11-19T05:13:49;100137.81;;;6.36
28905;BMP280;60848;53.884;11.446;2023-11-19T05:16:17;100137.59;;;6.45
28905;BMP280;60848;53.884;11.446;2023-11-19T05:18:47;100117.94;;;6.44
28905;BMP280;60848;53.884;11.446;2023-11-19T05:21:17;100119.72;;;6.40
28905;BMP280;60848;53.884;11.446;2023-11-19T05:23:48;100133.38;;;6.37
28905;BMP280;60848;53.884;11.446;2023-11-19T05:26:20;100100.78;;;6.39
28905;BMP280;60848;53.884;11.446;2023-11-19T05:28:48;100097.06;;;6.40
28905;BMP280;60848;53.884;11.446;2023-11-19T05:31:17;100104.59;;;6.45
28905;BMP280;60848;53.884;11.446;2023-11-19T05:33:46;100080.41;;;6.41
28905;BMP280;60848;53.884;11.446;2023-11-19T05:36:15;100093.75;;;6.40
28905;BMP280;60848;53.884;11.446;2023-11-19T05:38:44;100088.97;;;6.42
28905;BMP280;60848;53.884;11.446;2023-11-19T05:41:13;100077.81;;;6.41
28905;BMP280;60848;53.884;11.446;2023-11-19T05:43:42;100083.06;;;6.45
28905;BMP280;60848;53.884;11.446;2023-11-19T05:46:10;100089.03;;;6.45
28905;BMP280;60848;53.884;11.446;2023-11-19T05:48:43;100077.97;;;6.48
28905;BMP280;60848;53.884;11.446;2023-11-19T05:51:14;100065.59;;;6.42
28905;BMP280;60848;53.884;11.446;2023-11-19T05:53:45;100053.44;;;6.46
28905;BMP280;60848;53.884;11.446;2023-11-19T05:56:13;100060.13;;;6.47
28905;BMP280;60848;53.884;11.446;2023-11-19T05:58:43;100063.13;;;6.49
28905;BMP280;60848;53.884;11.446;2023-11-19T06:01:14;100053.50;;;6.49
28905;BMP280;60848;53.884;11.446;2023-11-19T06:03:43;100053.94;;;6.55
28905;BMP280;60848;53.884;11.446;2023-11-19T06:06:17;100044.72;;;6.57
28905;BMP280;60848;53.884;11.446;2023-11-19T06:08:47;100037.69;;;6.58
28905;BMP280;60848;53.884;11.446;2023-11-19T06:11:15;100031.78;;;6.61
28905;BMP280;60848;53.884;11.446;2023-11-19T06:13:46;100041.47;;;6.64
28905;BMP280;60848;53.884;11.446;2023-11-19T06:16:18;100031.50;;;6.66
28905;BMP280;60848;53.884;11.446;2023-11-19T06:18:46;100014.41;;;6.65
28905;BMP280;60848;53.884;11.446;2023-11-19T06:21:15;100050.09;;;6.68
28905;BMP280;60848;53.884;11.446;2023-11-19T06:23:47;100036.34;;;6.67
28905;BMP280;60848;53.884;11.446;2023-11-19T06:26:18;100034.22;;;6.73
28905;BMP280;60848;53.884;11.446;2023-11-19T06:28:47;100047.97;;;6.73
28905;BMP280;60848;53.884;11.446;2023-11-19T06:31:15;100037.22;;;6.75
28905;BMP280;60848;53.884;11.446;2023-11-19T06:33:44;100020.50;;;6.72
28905;BMP280;60848;53.884;11.446;2023-11-19T06:36:14;100023.50;;;6.74
28905;BMP280;60848;53.884;11.446;2023-11-19T06:38:43;100036.19;;;6.79
28905;BMP280;60848;53.884;11.446;2023-11-19T06:41:13;100026.19;;;6.81
28905;BMP280;60848;53.884;11.446;2023-11-19T06:43:41;100011.75;;;6.84
28905;BMP280;60848;53.884;11.446;2023-11-19T06:46:17;100038.94;;;6.90
28905;BMP280;60848;53.884;11.446;2023-11-19T06:48:46;100039.75;;;6.94
28905;BMP280;60848;53.884;11.446;2023-11-19T06:51:16;100058.41;;;7.00
28905;BMP280;60848;53.884;11.446;2023-11-19T06:53:45;100040.97;;;7.00
28905;BMP280;60848;53.884;11.446;2023-11-19T06:56:22;100053.25;;;7.03
28905;BMP280;60848;53.884;11.446;2023-11-19T06:58:53;100038.13;;;7.09
28905;BMP280;60848;53.884;11.446;2023-11-19T07:01:21;100026.63;;;7.10
28905;BMP280;60848;53.884;11.446;2023-11-19T07:03:50;100029.97;;;7.10
28905;BMP280;60848;53.884;11.446;2023-11-19T07:06:21;100034.13;;;7.15
28905;BMP280;60848;53.884;11.446;2023-11-19T07:09:01;100032.75;;;7.21
28905;BMP280;60848;53.884;11.446;2023-11-19T07:11:38;100026.47;;;7.25
28905;BMP280;60848;53.884;11.446;2023-11-19T07:14:07;100027.97;;;7.26
28905;BMP280;60848;53.884;11.446;2023-11-19T07:16:36;100025.41;;;7.30
28905;BMP280;60848;53.884;11.446;2023-11-19T07:19:05;100023.97;;;7.32
28905;BMP280;60848;53.884;11.446;2023-11-19T07:21:34;100012.91;;;7.35
28905;BMP280;60848;53.884;11.446;2023-11-19T07:24:07;100020.72;;;7.39
28905;BMP280;60848;53.884;11.446;2023-11-19T07:26:35;100021.16;;;7.44
28905;BMP280;60848;53.884;11.446;2023-11-19T07:29:08;100015.59;;;7.46
28905;BMP280;60848;53.884;11.446;2023-11-19T07:31:38;100013.78;;;7.50
28905;BMP280;60848;53.884;11.446;2023-11-19T07:34:07;100014.19;;;7.52
28905;BMP280;60848;53.884;11.446;2023-11-19T07:36:36;100006.06;;;7.53
28905;BMP280;60848;53.884;11.446;2023-11-19T07:39:04;100005.34;;;7.56
28905;BMP280;60848;53.884;11.446;2023-11-19T07:41:33;99999.06;;;7.61
28905;BMP280;60848;53.884;11.446;2023-11-19T07:44:05;100005.06;;;7.65
28905;BMP280;60848;53.884;11.446;2023-11-19T07:46:35;99999.91;;;7.68
28905;BMP280;60848;53.884;11.446;2023-11-19T07:49:03;99992.47;;;7.67
28905;BMP280;60848;53.884;11.446;2023-11-19T07:51:32;99995.16;;;7.74
28905;BMP280;60848;53.884;11.446;2023-11-19T07:54:00;99993.34;;;7.78
28905;BMP280;60848;53.884;11.446;2023-11-19T07:56:29;99991.16;;;7.80
28905;BMP280;60848;53.884;11.446;2023-11-19T07:58:57;99993.41;;;7.85
28905;BMP280;60848;53.884;11.446;2023-11-19T08:01:26;100000.53;;;7.88
28905;BMP280;60848;53.884;11.446;2023-11-19T08:03:55;99996.41;;;7.87
28905;BMP280;60848;53.884;11.446;2023-11-19T08:06:26;99995.72;;;7.93
28905;BMP280;60848;53.884;11.446;2023-11-19T08:08:54;99991.69;;;7.96
28905;BMP280;60848;53.884;11.446;2023-11-19T08:11:23;99984.31;;;8.01
28905;BMP280;60848;53.884;11.446;2023-11-19T08:13:52;99987.66;;;8.02
28905;BMP280;60848;53.884;11.446;2023-11-19T08:16:20;99984.34;;;8.08
28905;BMP280;60848;53.884;11.446;2023-11-19T08:18:48;99981.41;;;8.14
28905;BMP280;60848;53.884;11.446;2023-11-19T08:21:18;99974.41;;;8.18
28905;BMP280;60848;53.884;11.446;2023-11-19T08:23:48;99980.03;;;8.23
28905;BMP280;60848;53.884;11.446;2023-11-19T08:26:16;99977.78;;;8.25
28905;BMP280;60848;53.884;11.446;2023-11-19T08:28:48;99974.13;;;8.30
28905;BMP280;60848;53.884;11.446;2023-11-19T08:31:16;99976.00;;;8.33
28905;BMP280;60848;53.884;11.446;2023-11-19T08:33:47;99976.03;;;8.36
28905;BMP280;60848;53.884;11.446;2023-11-19T08:36:19;99982.06;;;8.44
28905;BMP280;60848;53.884;11.446;2023-11-19T08:38:50;99991.81;;;8.50
28905;BMP280;60848;53.884;11.446;2023-11-19T08:41:18;99978.47;;;8.59
28905;BMP280;60848;53.884;11.446;2023-11-19T08:43:47;99971.81;;;8.65
28905;BMP280;60848;53.884;11.446;2023-11-19T08:46:18;99970.00;;;8.72
28905;BMP280;60848;53.884;11.446;2023-11-19T08:48:46;99979.34;;;8.80
28905;BMP280;60848;53.884;11.446;2023-11-19T08:51:15;99973.06;;;8.85
28905;BMP280;60848;53.884;11.446;2023-11-19T08:53:45;99970.50;;;8.92
28905;BMP280;60848;53.884;11.446;2023-11-19T08:56:13;99975.00;;;8.98
28905;BMP280;60848;53.884;11.446;2023-11-19T08:58:41;99970.16;;;9.04
28905;BMP280;60848;53.884;11.446;2023-11-19T09:01:10;99978.06;;;9.11
28905;BMP280;60848;53.884;11.446;2023-11-19T09:03:41;99968.38;;;9.15
28905;BMP280;60848;53.884;11.446;2023-11-19T09:06:10;99969.91;;;9.19
28905;BMP280;60848;53.884;11.446;2023-11-19T09:08:39;99964.28;;;9.21
28905;BMP280;60848;53.884;11.446;2023-11-19T09:11:09;99969.53;;;9.24
28905;BMP280;60848;53.884;11.446;2023-11-19T09:13:39;99964.00;;;9.29
28905;BMP280;60848;53.884;11.446;2023-11-19T09:16:08;99968.06;;;9.34
28905;BMP280;60848;53.884;11.446;2023-11-19T09:18:37;99961.78;;;9.39
28905;BMP280;60848;53.884;11.446;2023-11-19T09:21:10;99965.88;;;9.43
28905;BMP280;60848;53.884;11.446;2023-11-19T09:23:38;99965.16;;;9.50
28905;BMP280;60848;53.884;11.446;2023-11-19T09:26:11;99965.91;;;9.57
28905;BMP280;60848;53.884;11.446;2023-11-19T09:28:39;99972.66;;;9.65
28905;BMP280;60848;53.884;11.446;2023-11-19T09:31:13;99961.09;;;9.77
28905;BMP280;60848;53.884;11.446;2023-11-19T09:33:42;99963.38;;;9.85
28905;BMP280;60848;53.884;11.446;2023-11-19T09:36:12;99965.25;;;9.92
28905;BMP280;60848;53.884;11.446;2023-11-19T09:38:41;99971.59;;;10.01
28905;BMP280;60848;53.884;11.446;2023-11-19T09:41:10;99965.25;;;10.09
28905;BMP280;60848;53.884;11.446;2023-11-19T09:43:40;99963.03;;;10.18
28905;BMP280;60848;53.884;11.446;2023-11-19T09:46:13;99967.47;;;10.25
28905;BMP280;60848;53.884;11.446;2023-11-19T09:48:43;99968.28;;;10.32
28905;BMP280;60848;53.884;11.446;2023-11-19T09:51:12;99964.16;;;10.38
28905;BMP280;60848;53.884;11.446;2023-11-19T09:53:41;99966.75;;;10.45
28905;BMP280;60848;53.884;11.446;2023-11-19T09:56:11;99966.75;;;10.52
28905;BMP280;60848;53.884;11.446;2023-11-19T09:58:44;99963.38;;;10.59
28905;BMP280;60848;53.884;11.446;2023-11-19T10:01:15;99962.59;;;10.65
28905;BMP280;60848;53.884;11.446;2023-11-19T10:03:47;99966.00;;;10.73
28905;BMP280;60848;53.884;11.446;2023-11-19T10:06:16;99963.72;;;10.79
28905;BMP280;60848;53.884;11.446;2023-11-19T10:08:46;99957.72;;;10.85
28905;BMP280;60848;53.884;11.446;2023-11-19T10:11:16;99959.53;;;10.92
28905;BMP280;60848;53.884;11.446;2023-11-19T10:13:45;99965.53;;;10.99
28905;BMP280;60848;53.884;11.446;2023-11-19T10:16:15;99956.53;;;11.07
28905;BMP280;60848;53.884;11.446;2023-11-19T10:18:45;99959.47;;;11.13
28905;BMP280;60848;53.884;11.446;2023-11-19T10:21:14;99959.84;;;11.22
28905;BMP280;60848;53.884;11.446;2023-11-19T10:23:50;99954.53;;;11.32
28905;BMP280;60848;53.884;11.446;2023-11-19T10:26:21;99964.59;;;11.41
28905;BMP280;60848;53.884;11.446;2023-11-19T10:28:49;99964.56;;;11.48
28905;BMP280;60848;53.884;11.446;2023-11-19T10:31:21;99960.75;;;11.59
28905;BMP280;60848;53.884;11.446;2023-11-19T10:33:54;99963.69;;;11.65
28905;BMP280;60848;53.884;11.446;2023-11-19T10:36:26;99977.50;;;11.76
28905;BMP280;60848;53.884;11.446;2023-11-19T10:39:05;99972.56;;;11.81
28905;BMP280;60848;53.884;11.446;2023-11-19T10:41:35;99974.78;;;11.86
28905;BMP280;60848;53.884;11.446;2023-11-19T10:44:04;99975.88;;;11.89
28905;BMP280;60848;53.884;11.446;2023-11-19T10:46:39;99963.88;;;11.98
28905;BMP280;60848;53.884;11.446;2023-11-19T10:49:08;99972.06;;;12.00
28905;BMP280;60848;53.884;11.446;2023-11-19T10:51:36;99978.03;;;12.04
28905;BMP280;60848;53.884;11.446;2023-11-19T10:54:10;99970.19;;;12.04
28905;BMP280;60848;53.884;11.446;2023-11-19T10:56:40;99985.50;;;12.06
28905;BMP280;60848;53.884;11.446;2023-11-19T10:59:11;99987.38;;;12.05
28905;BMP280;60848;53.884;11.446;2023-11-19T11:01:44;99983.59;;;12.10
28905;BMP280;60848;53.884;11.446;2023-11-19T11:04:13;99982.09;;;12.12
28905;BMP280;60848;53.884;11.446;2023-11-19T11:06:45;99979.09;;;12.10
28905;BMP280;60848;53.884;11.446;2023-11-19T11:09:14;99980.16;;;12.20
28905;BMP280;60848;53.884;11.446;2023-11-19T11:11:45;99982.34;;;12.21
28905;BMP280;60848;53.884;11.446;2023-11-19T11:14:14;99977.53;;;12.20
28905;BMP280;60848;53.884;11.446;2023-11-19T11:16:44;99976.00;;;12.22
28905;BMP280;60848;53.884;11.446;2023-11-19T11:19:16;99984.59;;;12.27
28905;BMP280;60848;53.884;11.446;2023-11-19T11:21:48;99987.16;;;12.30
28905;BMP280;60848;53.884;11.446;2023-11-19T11:24:29;99988.63;;;12.35
28905;BMP280;60848;53.884;11.446;2023-11-19T11:27:24;99988.59;;;12.38
28905;BMP280;60848;53.884;11.446;2023-11-19T11:30:00;99987.09;;;12.41
28905;BMP280;60848;53.884;11.446;2023-11-19T11:32:35;99988.91;;;12.44
28905;BMP280;60848;53.884;11.446;2023-11-19T11:35:18;99991.09;;;12.49
28905;BMP280;60848;53.884;11.446;2023-11-19T11:37:54;99985.16;;;12.48
28905;BMP280;60848;53.884;11.446;2023-11-19T11:40:24;99992.94;;;12.52
28905;BMP280;60848;53.884;11.446;2023-11-19T11:42:55;99994.81;;;12.55
28905;BMP280;60848;53.884;11.446;2023-11-19T11:45:35;99991.38;;;12.61
28905;BMP280;60848;53.884;11.446;2023-11-19T11:48:17;99995.00;;;12.71
28905;BMP280;60848;53.884;11.446;2023-11-19T11:50:54;99991.94;;;12.76
28905;BMP280;60848;53.884;11.446;2023-11-19T11:53:24;99989.63;;;12.85
28905;BMP280;60848;53.884;11.446;2023-11-19T11:55:56;99991.06;;;12.89
28905;BMP280;60848;53.884;11.446;2023-11-19T11:58:30;99986.94;;;12.92
28905;BMP280;60848;53.884;11.446;2023-11-19T12:01:00;99978.56;;;13.00
28905;BMP280;60848;53.884;11.446;2023-11-19T12:03:29;99986.78;;;13.02
28905;BMP280;60848;53.884;11.446;2023-11-19T12:05:58;99972.13;;;13.05
28905;BMP280;60848;53.884;11.446;2023-11-19T12:08:28;99986.78;;;13.06
28905;BMP280;60848;53.884;11.446;2023-11-19T12:10:58;99988.28;;;13.03
28905;BMP280;60848;53.884;11.446;2023-11-19T12:13:48;99997.16;;;13.13
28905;BMP280;60848;53.884;11.446;2023-11-19T12:16:21;99995.63;;;13.15
28905;BMP280;60848;53.884;11.446;2023-11-19T12:18:49;99997.09;;;13.20
28905;BMP280;60848;53.884;11.446;2023-11-19T12:21:38;99998.91;;;13.23
28905;BMP280;60848;53.884;11.446;2023-11-19T12:24:07;100009.47;;;13.19
28905;BMP280;60848;53.884;11.446;2023-11-19T12:26:37;100000.78;;;13.22
28905;BMP280;60848;53.884;11.446;2023-11-19T12:29:08;100003.03;;;13.24
28905;BMP280;60848;53.884;11.446;2023-11-19T12:31:37;100010.84;;;13.27
28905;BMP280;60848;53.884;11.446;2023-11-19T12:34:09;100001.09;;;13.28
28905;BMP280;60848;53.884;11.446;2023-11-19T12:36:43;99995.88;;;13.24
28905;BMP280;60848;53.884;11.446;2023-11-19T12:39:11;99997.81;;;13.20
28905;BMP280;60848;53.884;11.446;2023-11-19T12:41:50;99999.25;;;13.25
28905;BMP280;60848;53.884;11.446;2023-11-19T12:44:21;100009.00;;;13.24
28905;BMP280;60848;53.884;11.446;2023-11-19T12:47:00;100001.50;;;13.26
28905;BMP280;60848;53.884;11.446;2023-11-19T12:49:29;100008.22;;;13.27
28905;BMP280;60848;53.884;11.446;2023-11-19T12:51:57;100006.78;;;13.23
28905;BMP280;60848;53.884;11.446;2023-11-19T12:54:34;100003.41;;;13.26
28905;BMP280;60848;53.884;11.446;2023-11-19T12:57:03;100013.91;;;13.26
28905;BMP280;60848;53.884;11.446;2023-11-19T12:59:36;100007.53;;;13.23
28905;BMP280;60848;53.884;11.446;2023-11-19T13:02:05;100010.16;;;13.23
28905;BMP280;60848;53.884;11.446;2023-11-19T13:04:34;100019.16;;;13.26
28905;BMP280;60848;53.884;11.446;2023-11-19T13:07:02;100007.19;;;13.21
28905;BMP280;60848;53.884;11.446;2023-11-19T13:09:33;100011.66;;;13.21
28905;BMP280;60848;53.884;11.446;2023-11-19T13:12:12;100010.56;;;13.22
28905;BMP280;60848;53.884;11.446;2023-11-19T13:14:45;100010.56;;;13.22
28905;BMP280;60848;53.884;11.446;2023-11-19T13:17:14;100008.31;;;13.20
28905;BMP280;60848;53.884;11.446;2023-11-19T13:19:43;100013.19;;;13.22
28905;BMP280;60848;53.884;11.446;2023-11-19T13:22:11;100001.16;;;13.21
28905;BMP280;60848;53.884;11.446;2023-11-19T13:24:40;100015.84;;;13.18
28905;BMP280;60848;53.884;11.446;2023-11-19T13:27:10;100013.97;;;13.19
28905;BMP280;60848;53.884;11.446;2023-11-19T13:29:38;100010.59;;;13.18
28905;BMP280;60848;53.884;11.446;2023-11-19T13:32:08;100013.22;;;13.18
28905;BMP280;60848;53.884;11.446;2023-11-19T13:34:37;100004.22;;;13.19
28905;BMP280;60848;53.884;11.446;2023-11-19T13:37:06;100016.59;;;13.19
28905;BMP280;60848;53.884;11.446;2023-11-19T13:39:35;100011.34;;;13.19
28905;BMP280;60848;53.884;11.446;2023-11-19T13:42:03;100009.88;;;13.18
28905;BMP280;60848;53.884;11.446;2023-11-19T13:44:35;100017.00;;;13.17
28905;BMP280;60848;53.884;11.446;2023-11-19T13:47:03;100011.34;;;13.19
28905;BMP280;60848;53.884;11.446;2023-11-19T13:49:33;100003.06;;;13.20
28905;BMP280;60848;53.884;11.446;2023-11-19T13:52:01;100009.06;;;13.21
28905;BMP280;60848;53.884;11.446;2023-11-19T13:54:30;100005.66;;;13.24
28905;BMP280;60848;53.884;11.446;2023-11-19T13:56:58;100006.03;;;13.22
28905;BMP280;60848;53.884;11.446;2023-11-19T13:59:28;99995.91;;;13.21
28905;BMP280;60848;53.884;11.446;2023-11-19T14:01:56;100004.53;;;13.25
28905;BMP280;60848;53.884;11.446;2023-11-19T14:04:27;100009.00;;;13.24
28905;BMP280;60848;53.884;11.446;2023-11-19T14:06:57;100003.03;;;13.24
28905;BMP280;60848;53.884;11.446;2023-11-19T14:09:25;100006.78;;;13.23
28905;BMP280;60848;53.884;11.446;2023-11-19T14:11:54;100013.53;;;13.24
28905;BMP280;60848;53.884;11.446;2023-11-19T14:14:24;100012.44;;;13.21